Time;durP1;ratioP1;P1;durP2;ratioP2;P2;SDS_P1;SDS_P2;PMS_P1;PMS_P2;Temp;Humidity;BMP_temperature;BMP_pressure;BME280_temperature;BME280_humidity;BME280_pressure;Samples;Min_cycle;Max_cycle;Signal;HPM_P1;HPM_P2
2022/10/12 00:01:43;;;;;;;3.80;3.50;;;21.00;99.10;;;;;;5021468;28;20474;-56
2022/10/12 00:04:09;;;;;;;4.83;3.60;;;21.10;98.90;;;;;;5025408;28;20462;-55
2022/10/12 00:06:36;;;;;;;3.40;3.10;;;21.10;98.80;;;;;;5027831;28;20454;-54
2022/10/12 00:09:03;;;;;;;3.50;3.20;;;21.10;98.90;;;;;;5024095;28;20487;-50
2022/10/12 00:11:30;;;;;;;3.90;3.50;;;21.00;98.80;;;;;;5024495;28;21016;-52
2022/10/12 00:13:58;;;;;;;5.70;3.13;;;21.00;99.10;;;;;;5027010;28;20473;-55
2022/10/12 00:16:25;;;;;;;2.50;2.30;;;20.90;99.00;;;;;;5016212;28;21009;-55
2022/10/12 00:18:54;;;;;;;3.93;3.53;;;20.80;99.20;;;;;;5016404;28;20458;-53
2022/10/12 00:21:22;;;;;;;3.03;2.73;;;20.70;99.30;;;;;;5028448;28;20471;-54
2022/10/12 00:23:49;;;;;;;3.20;2.90;;;20.70;99.40;;;;;;5022666;28;20989;-48
2022/10/12 00:26:18;;;;;;;4.23;3.03;;;20.70;99.50;;;;;;5021272;28;20454;-55
2022/10/12 00:28:45;;;;;;;3.80;3.00;;;20.70;99.50;;;;;;5031184;28;20442;-55
2022/10/12 00:31:14;;;;;;;3.50;3.17;;;20.70;99.60;;;;;;5019496;28;21000;-50
2022/10/12 00:33:41;;;;;;;5.27;3.30;;;20.70;99.50;;;;;;5029543;28;20462;-55
2022/10/12 00:36:14;;;;;;;3.65;3.33;;;20.70;99.50;;;;;;5013015;28;20831;-49
2022/10/12 00:38:40;;;;;;;3.90;3.13;;;20.70;99.50;;;;;;5014899;28;20200;-55
2022/10/12 00:41:08;;;;;;;3.10;2.80;;;20.70;99.40;;;;;;5016769;28;20770;-53
2022/10/12 00:43:38;;;;;;;2.97;2.67;;;20.70;99.70;;;;;;5024359;28;20192;-53
2022/10/12 00:46:10;;;;;;;3.35;3.05;;;20.70;99.40;;;;;;5021124;28;20462;-55
2022/10/12 00:48:38;;;;;;;3.53;3.23;;;20.70;99.40;;;;;;5021748;28;20251;-55
2022/10/12 00:51:06;;;;;;;3.17;2.87;;;20.70;99.50;;;;;;5020528;28;21003;-55
2022/10/12 00:53:37;;;;;;;3.38;2.80;;;20.70;99.40;;;;;;5025004;28;20469;-48
2022/10/12 00:56:10;;;;;;;3.43;2.90;;;20.70;99.50;;;;;;5017546;28;20199;-53
2022/10/12 00:58:37;;;;;;;4.53;3.63;;;20.70;99.50;;;;;;5019283;28;20466;-55
2022/10/12 01:01:05;;;;;;;3.30;3.00;;;20.70;99.60;;;;;;5021002;28;20205;-53
2022/10/12 01:03:33;;;;;;;3.00;2.80;;;20.60;99.50;;;;;;5021540;28;20465;-55
2022/10/12 01:06:00;;;;;;;3.25;2.58;;;20.60;99.60;;;;;;5025262;28;20540;-54
2022/10/12 01:08:28;;;;;;;3.58;3.03;;;20.50;99.80;;;;;;5026656;28;20188;-53
2022/10/12 01:10:56;;;;;;;2.70;2.50;;;20.30;99.90;;;;;;5021933;28;20200;-54
2022/10/12 01:13:23;;;;;;;3.17;2.88;;;20.30;99.90;;;;;;5016655;28;20460;-54
2022/10/12 01:15:57;;;;;;;3.40;3.10;;;20.30;99.90;;;;;;5020960;28;20283;-55
2022/10/12 01:18:31;;;;;;;3.10;2.80;;;20.40;99.90;;;;;;5024680;28;20462;-53
2022/10/12 01:21:08;;;;;;;4.78;3.58;;;20.40;99.90;;;;;;5025311;28;20200;-49
2022/10/12 01:24:07;;;;;;;3.23;2.93;;;20.40;99.90;;;;;;5021309;28;20198;-52
2022/10/12 01:27:00;;;;;;;4.47;3.07;;;20.40;99.90;;;;;;5017399;28;20512;-46
2022/10/12 01:29:52;;;;;;;3.55;3.10;;;20.40;99.90;;;;;;5013219;28;20883;-52
2022/10/12 01:32:25;;;;;;;5.37;2.77;;;20.30;99.90;;;;;;5020377;28;20216;-49
2022/10/12 01:34:58;;;;;;;3.25;2.95;;;20.30;99.90;;;;;;5015035;28;20459;-51
2022/10/12 01:37:37;;;;;;;3.10;2.80;;;20.30;99.90;;;;;;5012226;28;20562;-52
2022/10/12 01:40:08;;;;;;;3.42;2.90;;;20.30;99.90;;;;;;5025975;28;20530;-52
2022/10/12 01:42:40;;;;;;;2.63;2.42;;;20.30;99.90;;;;;;5016072;28;20207;-51
2022/10/12 01:45:09;;;;;;;3.47;2.70;;;20.30;99.90;;;;;;5023213;28;20204;-51
2022/10/12 01:47:39;;;;;;;3.25;2.63;;;20.30;99.90;;;;;;5017454;28;20567;-55
2022/10/12 01:50:09;;;;;;;4.70;3.17;;;20.30;99.90;;;;;;5024180;28;20203;-54
2022/10/12 01:52:42;;;;;;;2.80;2.38;;;20.30;99.90;;;;;;5018215;28;20211;-55
2022/10/12 01:55:19;;;;;;;2.95;2.65;;;20.30;99.90;;;;;;5026238;28;20208;-50
2022/10/12 01:58:17;;;;;;;3.45;2.85;;;20.30;99.90;;;;;;5017365;28;20846;-54
2022/10/12 02:00:51;;;;;;;3.10;2.75;;;20.20;99.90;;;;;;5010413;28;20201;-53
2022/10/12 02:03:22;;;;;;;2.70;2.28;;;20.20;99.90;;;;;;5021571;28;20204;-50
2022/10/12 02:05:54;;;;;;;3.03;2.72;;;20.20;99.90;;;;;;5021743;28;20199;-48
2022/10/12 02:08:25;;;;;;;3.10;2.85;;;20.20;99.90;;;;;;5028675;28;20192;-55
2022/10/12 02:10:57;;;;;;;2.95;2.67;;;20.20;99.90;;;;;;5032705;28;20702;-52
2022/10/12 02:13:28;;;;;;;3.45;3.15;;;20.00;99.90;;;;;;5029601;28;20659;-53
2022/10/12 02:15:55;;;;;;;3.53;3.22;;;20.10;99.90;;;;;;5027593;28;20654;-52
2022/10/12 02:18:25;;;;;;;3.13;2.93;;;20.20;99.90;;;;;;5030834;28;20784;-53
2022/10/12 02:20:53;;;;;;;2.88;2.45;;;20.20;99.90;;;;;;5026541;28;20481;-49
2022/10/12 02:23:23;;;;;;;3.28;2.97;;;20.20;99.90;;;;;;5020678;28;20562;-53
2022/10/12 02:25:51;;;;;;;3.35;3.08;;;20.10;99.90;;;;;;5030558;28;20686;-47
2022/10/12 02:28:20;;;;;;;3.60;3.10;;;20.10;99.90;;;;;;5033435;28;20199;-51
2022/10/12 02:30:53;;;;;;;3.47;3.15;;;20.10;99.90;;;;;;5031307;28;20678;-53
2022/10/12 02:33:27;;;;;;;3.08;2.80;;;20.10;99.90;;;;;;5024416;28;20223;-45
2022/10/12 02:36:01;;;;;;;3.17;2.88;;;20.00;99.90;;;;;;5015618;28;20203;-52
2022/10/12 02:38:32;;;;;;;3.17;2.78;;;20.00;99.90;;;;;;5014334;28;20584;-51
2022/10/12 02:41:05;;;;;;;3.08;2.85;;;20.00;99.90;;;;;;5030151;28;20204;-49
2022/10/12 02:43:36;;;;;;;2.70;2.45;;;20.00;99.90;;;;;;5021464;28;20640;-52
2022/10/12 02:46:05;;;;;;;3.03;2.72;;;20.00;99.90;;;;;;5022257;28;20196;-55
2022/10/12 02:48:35;;;;;;;3.35;3.05;;;20.00;99.90;;;;;;5022696;28;20196;-55
2022/10/12 02:51:03;;;;;;;3.33;3.03;;;20.00;99.90;;;;;;5026117;28;20200;-50
2022/10/12 02:53:30;;;;;;;3.00;2.70;;;20.00;99.90;;;;;;5026531;28;20223;-52
2022/10/12 02:56:02;;;;;;;2.92;2.60;;;20.00;99.90;;;;;;5019369;28;20207;-51
2022/10/12 02:58:29;;;;;;;2.97;2.67;;;20.00;99.90;;;;;;5028954;28;20207;-54
2022/10/12 03:00:56;;;;;;;3.17;2.88;;;20.00;99.90;;;;;;5020050;28;20775;-49
2022/10/12 03:03:23;;;;;;;3.83;2.95;;;20.00;99.90;;;;;;5016744;28;20548;-56
2022/10/12 03:05:51;;;;;;;3.33;2.75;;;20.00;99.90;;;;;;5029384;28;20659;-54
2022/10/12 03:08:18;;;;;;;4.15;3.20;;;19.90;99.90;;;;;;5015801;28;20199;-52
2022/10/12 03:10:44;;;;;;;2.65;2.42;;;19.90;99.90;;;;;;5022513;28;20602;-50
2022/10/12 03:13:11;;;;;;;3.60;3.30;;;19.80;99.90;;;;;;5019500;28;20270;-47
2022/10/12 03:15:38;;;;;;;3.50;3.20;;;19.80;99.90;;;;;;5021762;28;20215;-52
2022/10/12 03:18:04;;;;;;;3.05;2.80;;;19.80;99.90;;;;;;5021802;28;20215;-48
2022/10/12 03:20:31;;;;;;;3.38;3.08;;;19.80;99.90;;;;;;5020343;28;20586;-53
2022/10/12 03:22:59;;;;;;;3.45;3.10;;;19.90;99.90;;;;;;5023655;28;21797;-54
2022/10/12 03:25:26;;;;;;;2.78;2.58;;;19.90;99.90;;;;;;5024699;28;20197;-55
2022/10/12 03:27:53;;;;;;;3.28;2.97;;;19.90;99.90;;;;;;5018037;28;20223;-51
2022/10/12 03:30:19;;;;;;;6.05;3.22;;;19.90;99.90;;;;;;5023501;28;20199;-55
2022/10/12 03:32:46;;;;;;;4.03;3.00;;;19.90;99.90;;;;;;5020448;28;20219;-55
2022/10/12 03:35:13;;;;;;;4.00;3.40;;;19.90;99.90;;;;;;5028474;28;20222;-52
2022/10/12 03:37:40;;;;;;;3.47;2.85;;;19.80;99.90;;;;;;5027641;28;20196;-52
2022/10/12 03:40:09;;;;;;;4.10;3.72;;;19.70;99.90;;;;;;5028932;28;20196;-55
2022/10/12 03:42:36;;;;;;;3.35;2.90;;;19.70;99.90;;;;;;5025626;28;20243;-55
2022/10/12 03:45:03;;;;;;;3.90;3.33;;;19.70;99.90;;;;;;5030499;28;20210;-52
2022/10/12 03:47:30;;;;;;;3.42;3.13;;;20.00;99.90;;;;;;5018992;28;20188;-52
2022/10/12 03:49:57;;;;;;;2.97;2.73;;;20.50;99.90;;;;;;5025885;28;20203;-52
2022/10/12 03:52:23;;;;;;;2.40;2.20;;;20.80;99.90;;;;;;5026347;28;20489;-49
2022/10/12 03:54:50;;;;;;;3.75;3.33;;;21.10;99.50;;;;;;5023772;28;20454;-55
2022/10/12 03:57:18;;;;;;;3.50;3.20;;;21.30;98.70;;;;;;5021602;28;20199;-53
2022/10/12 03:59:45;;;;;;;2.77;2.50;;;21.30;98.40;;;;;;5018962;28;20497;-55
2022/10/12 04:02:11;;;;;;;3.03;2.77;;;21.50;98.10;;;;;;5018467;28;20479;-46
2022/10/12 04:04:38;;;;;;;3.40;3.10;;;21.50;97.70;;;;;;5012873;28;20459;-47
2022/10/12 04:07:05;;;;;;;3.40;3.10;;;21.60;97.40;;;;;;5025301;28;20469;-54
2022/10/12 04:09:32;;;;;;;3.57;3.27;;;21.60;97.40;;;;;;5024644;28;20880;-52
2022/10/12 04:11:59;;;;;;;3.30;2.70;;;21.60;97.30;;;;;;5025495;28;20485;-55
2022/10/12 04:14:27;;;;;;;3.60;3.30;;;21.70;97.10;;;;;;5027319;28;20811;-48
2022/10/12 04:16:54;;;;;;;2.87;2.57;;;21.80;96.80;;;;;;5018486;28;20482;-49
2022/10/12 04:19:20;;;;;;;3.13;2.70;;;21.70;96.60;;;;;;5022245;28;20462;-50
2022/10/12 04:21:48;;;;;;;3.67;3.00;;;21.80;96.60;;;;;;5030732;28;20467;-54
2022/10/12 04:24:15;;;;;;;2.97;2.50;;;21.70;96.60;;;;;;5018351;28;20455;-55
2022/10/12 04:26:41;;;;;;;3.00;2.80;;;21.60;96.80;;;;;;5020332;28;20473;-54
2022/10/12 04:29:08;;;;;;;3.47;2.50;;;21.50;96.90;;;;;;5027023;28;20462;-52
2022/10/12 04:31:36;;;;;;;2.60;2.23;;;21.40;96.90;;;;;;5020267;28;20992;-55
2022/10/12 04:34:03;;;;;;;3.23;2.73;;;21.40;97.10;;;;;;5023699;28;20506;-55
2022/10/12 04:36:30;;;;;;;3.60;3.30;;;21.30;97.20;;;;;;5024928;28;20479;-44
2022/10/12 04:38:56;;;;;;;3.40;3.10;;;21.30;97.40;;;;;;5024816;28;20976;-52
2022/10/12 04:41:23;;;;;;;3.33;3.03;;;21.20;97.50;;;;;;5022456;28;20478;-50
2022/10/12 04:43:52;;;;;;;3.23;2.47;;;21.20;97.50;;;;;;5020209;28;20462;-48
2022/10/12 04:46:19;;;;;;;3.07;2.80;;;21.10;97.80;;;;;;5025676;28;20822;-53
2022/10/12 04:48:47;;;;;;;4.00;3.63;;;21.10;97.70;;;;;;5024910;28;20540;-54
2022/10/12 04:51:14;;;;;;;2.73;2.47;;;21.10;97.80;;;;;;5021482;28;20977;-49
2022/10/12 04:53:40;;;;;;;2.50;2.30;;;21.00;97.80;;;;;;5019196;28;20474;-52
2022/10/12 04:56:08;;;;;;;2.97;2.67;;;21.00;97.90;;;;;;5020439;28;20462;-53
2022/10/12 04:58:35;;;;;;;3.13;2.83;;;21.00;97.90;;;;;;5024402;28;20953;-51
2022/10/12 05:01:01;;;;;;;2.83;2.53;;;21.00;97.90;;;;;;5025404;28;20949;-55
2022/10/12 05:03:28;;;;;;;3.47;3.10;;;21.10;97.80;;;;;;5027001;28;20463;-44
2022/10/12 05:05:56;;;;;;;3.13;2.83;;;21.20;97.90;;;;;;5016186;28;20513;-54
2022/10/12 05:08:23;;;;;;;3.10;2.70;;;21.20;97.50;;;;;;5022804;28;20495;-52
2022/10/12 05:10:50;;;;;;;3.40;3.10;;;21.30;97.30;;;;;;5022148;28;20659;-53
2022/10/12 05:13:17;;;;;;;3.20;3.00;;;21.40;97.00;;;;;;5028706;28;20528;-51
2022/10/12 05:15:44;;;;;;;2.77;2.57;;;21.60;96.80;;;;;;5021694;28;20985;-52
2022/10/12 05:18:11;;;;;;;3.00;2.70;;;21.60;96.50;;;;;;5022667;28;20465;-47
2022/10/12 05:20:38;;;;;;;3.50;3.03;;;21.70;96.30;;;;;;5022336;28;20459;-53
2022/10/12 05:23:06;;;;;;;3.47;2.77;;;21.80;96.10;;;;;;5027248;28;20799;-52
2022/10/12 05:25:34;;;;;;;3.33;2.97;;;21.80;95.90;;;;;;5020517;28;21071;-53
2022/10/12 05:28:01;;;;;;;2.90;2.70;;;21.90;95.80;;;;;;5028612;28;20509;-48
2022/10/12 05:30:28;;;;;;;2.83;2.60;;;21.80;95.70;;;;;;5019326;28;22158;-49
2022/10/12 05:32:54;;;;;;;3.10;2.80;;;21.80;95.60;;;;;;5018401;28;20825;-47
2022/10/12 05:35:21;;;;;;;2.83;2.47;;;21.80;95.60;;;;;;5024832;28;20450;-49
2022/10/12 05:37:48;;;;;;;3.77;3.30;;;21.80;95.70;;;;;;5027715;28;20844;-52
2022/10/12 05:40:16;;;;;;;2.73;2.50;;;21.70;96.00;;;;;;5019912;28;20459;-46
2022/10/12 05:42:44;;;;;;;2.47;2.20;;;21.70;95.80;;;;;;5031508;28;20466;-51
2022/10/12 05:45:11;;;;;;;2.37;2.17;;;21.70;95.80;;;;;;5024234;28;20482;-48
2022/10/12 05:47:39;;;;;;;2.87;2.20;;;21.80;95.80;;;;;;5023801;28;20463;-50
2022/10/12 05:50:07;;;;;;;2.07;1.87;;;21.90;95.20;;;;;;5025068;28;20845;-49
2022/10/12 05:52:34;;;;;;;4.50;2.90;;;21.90;95.10;;;;;;5024874;28;20494;-47
2022/10/12 05:55:00;;;;;;;4.77;2.33;;;21.90;95.20;;;;;;5025021;28;20459;-52
2022/10/12 05:57:28;;;;;;;4.00;2.60;;;22.00;95.10;;;;;;5028394;28;20462;-45
2022/10/12 05:59:55;;;;;;;3.17;2.87;;;22.00;94.90;;;;;;5024637;28;20513;-47
2022/10/12 06:02:22;;;;;;;6.83;2.63;;;22.00;94.70;;;;;;5013670;28;20482;-49
2022/10/12 06:04:48;;;;;;;2.67;2.47;;;22.00;94.70;;;;;;5027192;28;20470;-53
2022/10/12 06:07:15;;;;;;;2.60;2.40;;;21.90;94.90;;;;;;5024060;28;20462;-47
2022/10/12 06:09:43;;;;;;;8.07;2.67;;;21.90;95.20;;;;;;5024454;28;20462;-53
2022/10/12 06:12:10;;;;;;;3.13;2.83;;;21.90;96.10;;;;;;5023131;28;20470;-53
2022/10/12 06:14:38;;;;;;;6.80;2.87;;;21.80;96.00;;;;;;5030159;28;20517;-56
2022/10/12 06:17:05;;;;;;;5.27;2.97;;;21.90;96.10;;;;;;5022083;28;20482;-52
2022/10/12 06:19:32;;;;;;;2.97;2.70;;;21.80;96.00;;;;;;5024061;28;20845;-52
2022/10/12 06:21:58;;;;;;;7.07;2.40;;;21.80;96.90;;;;;;5023691;28;20459;-55
2022/10/12 06:24:25;;;;;;;5.40;2.50;;;21.80;96.80;;;;;;5018611;28;21124;-53
2022/10/12 06:26:52;;;;;;;3.80;2.87;;;21.80;97.10;;;;;;5018512;28;20449;-55
2022/10/12 06:29:22;;;;;;;5.33;2.57;;;21.80;97.00;;;;;;5020633;28;20459;-49
2022/10/12 06:31:50;;;;;;;6.90;3.10;;;21.80;96.80;;;;;;5026972;28;21027;-50
2022/10/12 06:34:17;;;;;;;3.53;2.93;;;21.80;96.80;;;;;;5015103;28;20489;-54
2022/10/12 06:36:44;;;;;;;3.00;1.97;;;21.80;96.60;;;;;;5021922;28;20466;-48
2022/10/12 06:39:10;;;;;;;2.50;2.00;;;21.80;96.60;;;;;;5030176;28;20465;-52
2022/10/12 06:41:37;;;;;;;5.63;2.87;;;21.80;96.50;;;;;;5026879;28;20469;-55
2022/10/12 06:44:05;;;;;;;3.53;2.80;;;22.00;96.50;;;;;;5031711;28;20520;-51
2022/10/12 06:46:32;;;;;;;5.10;2.77;;;22.00;96.20;;;;;;5028911;28;20870;-48
2022/10/12 06:49:00;;;;;;;5.10;2.33;;;22.00;96.10;;;;;;5031344;28;20458;-53
2022/10/12 06:51:27;;;;;;;4.33;2.67;;;22.10;96.00;;;;;;5032784;28;20446;-52
2022/10/12 06:53:54;;;;;;;3.80;2.63;;;22.10;96.20;;;;;;5028680;28;20490;-50
2022/10/12 06:56:21;;;;;;;3.33;2.57;;;22.20;95.60;;;;;;5032892;28;20465;-55
2022/10/12 06:58:48;;;;;;;3.53;2.27;;;22.20;95.40;;;;;;5024136;28;20462;-50
2022/10/12 07:01:15;;;;;;;3.17;2.57;;;22.30;95.20;;;;;;5031562;28;20536;-53
2022/10/12 07:03:42;;;;;;;3.40;2.10;;;22.20;95.00;;;;;;5020130;28;20803;-49
2022/10/12 07:06:12;;;;;;;4.57;2.50;;;22.20;95.00;;;;;;5027453;28;20501;-49
2022/10/12 07:08:40;;;;;;;2.87;2.40;;;22.20;94.90;;;;;;5022440;28;20462;-49
2022/10/12 07:11:10;;;;;;;2.87;1.97;;;22.20;95.00;;;;;;5032438;28;20443;-53
2022/10/12 07:13:37;;;;;;;2.43;2.23;;;22.10;94.90;;;;;;5017791;28;20490;-49
2022/10/12 07:16:04;;;;;;;2.80;2.60;;;22.10;94.90;;;;;;5025166;28;20443;-53
2022/10/12 07:18:31;;;;;;;3.23;2.17;;;22.10;95.00;;;;;;5020888;28;20462;-52
2022/10/12 07:20:58;;;;;;;2.77;2.53;;;22.00;95.00;;;;;;5024122;28;20489;-53
2022/10/12 07:23:27;;;;;;;5.40;2.33;;;22.00;95.00;;;;;;5026501;28;20492;-54
2022/10/12 07:25:54;;;;;;;3.00;2.70;;;21.90;95.00;;;;;;5024513;28;20455;-54
2022/10/12 07:28:21;;;;;;;2.60;2.40;;;21.90;95.00;;;;;;5024143;28;20868;-50
2022/10/12 07:30:48;;;;;;;2.23;2.03;;;21.90;95.00;;;;;;5019797;28;20540;-51
2022/10/12 07:33:15;;;;;;;2.83;2.60;;;21.90;95.10;;;;;;5016922;28;20474;-51
2022/10/12 07:35:42;;;;;;;3.80;2.00;;;21.90;95.20;;;;;;5025142;28;20520;-54
2022/10/12 07:38:09;;;;;;;3.47;2.47;;;21.90;95.20;;;;;;5019041;28;20547;-48
2022/10/12 07:40:37;;;;;;;2.83;2.20;;;22.00;95.10;;;;;;5017754;28;20458;-53
2022/10/12 07:43:04;;;;;;;2.67;2.47;;;22.20;94.80;;;;;;5028048;28;20554;-47
2022/10/12 07:45:32;;;;;;;3.50;2.43;;;22.30;94.50;;;;;;5012531;28;20448;-52
2022/10/12 07:47:59;;;;;;;2.83;2.57;;;22.40;94.20;;;;;;5019869;28;20466;-48
2022/10/12 07:50:26;;;;;;;3.63;1.90;;;22.50;94.00;;;;;;5022948;28;20821;-51
2022/10/12 07:52:52;;;;;;;2.67;2.38;;;22.60;93.90;;;;;;5027309;28;20461;-56
2022/10/12 07:55:19;;;;;;;3.13;2.30;;;22.70;93.50;;;;;;5022224;28;20207;-52
2022/10/12 07:57:47;;;;;;;4.87;2.50;;;22.70;93.20;;;;;;5023561;28;20458;-55
2022/10/12 08:00:14;;;;;;;3.40;2.63;;;22.70;92.90;;;;;;5031766;28;20965;-56
2022/10/12 08:02:41;;;;;;;3.57;2.70;;;22.80;92.60;;;;;;5028963;28;20897;-52
2022/10/12 08:05:09;;;;;;;2.83;2.40;;;22.80;92.50;;;;;;5031118;28;20451;-55
2022/10/12 08:07:35;;;;;;;2.60;2.00;;;22.80;92.40;;;;;;5021337;28;20461;-54
2022/10/12 08:10:02;;;;;;;2.67;2.47;;;22.80;92.30;;;;;;5020358;28;20462;-55
2022/10/12 08:12:29;;;;;;;2.90;2.50;;;22.80;92.10;;;;;;5021925;28;20957;-53
2022/10/12 08:14:57;;;;;;;5.03;2.80;;;22.80;91.80;;;;;;5026467;28;20858;-45
2022/10/12 08:17:24;;;;;;;2.93;2.70;;;22.80;91.70;;;;;;5022810;28;20478;-50
2022/10/12 08:19:50;;;;;;;3.70;2.80;;;22.60;92.00;;;;;;5024941;28;20541;-50
2022/10/12 08:22:17;;;;;;;2.57;2.30;;;22.60;92.30;;;;;;5016290;28;20474;-42
2022/10/12 08:24:44;;;;;;;3.30;2.60;;;22.60;92.40;;;;;;5025809;28;20536;-50
2022/10/12 08:27:10;;;;;;;4.27;2.73;;;22.60;92.50;;;;;;5028877;28;20462;-54
2022/10/12 08:29:38;;;;;;;6.17;2.30;;;22.60;92.60;;;;;;5014373;28;20905;-43
2022/10/12 08:32:06;;;;;;;4.70;2.50;;;22.60;92.60;;;;;;5018636;28;20450;-44
2022/10/12 08:34:33;;;;;;;3.80;3.43;;;22.60;92.70;;;;;;5021320;28;20485;-43
2022/10/12 08:37:00;;;;;;;3.33;2.60;;;22.60;92.40;;;;;;5021198;28;20473;-42
2022/10/12 08:39:27;;;;;;;4.10;2.60;;;22.60;92.60;;;;;;5021763;28;20458;-43
2022/10/12 08:42:05;;;;;;;2.43;1.90;;;22.60;92.70;;;;;;5016834;28;20517;-43
2022/10/12 08:44:52;;;;;;;3.63;3.30;;;22.60;92.80;;;;;;5017578;28;20593;-47
2022/10/12 08:47:24;;;;;;;3.13;2.63;;;22.70;92.80;;;;;;5020716;28;20493;-43
2022/10/12 08:49:52;;;;;;;3.10;2.37;;;22.70;92.80;;;;;;5025509;28;20459;-47
2022/10/12 08:52:28;;;;;;;3.30;2.67;;;22.70;92.80;;;;;;5018007;28;20807;-43
2022/10/12 08:55:00;;;;;;;3.17;2.23;;;22.70;92.80;;;;;;5018913;28;20474;-43
2022/10/12 08:57:27;;;;;;;4.50;2.20;;;22.70;92.70;;;;;;5018171;28;20458;-44
2022/10/12 08:59:53;;;;;;;4.07;2.50;;;22.80;92.60;;;;;;5028945;28;20442;-44
2022/10/12 09:02:37;;;;;;;3.00;2.20;;;22.80;92.60;;;;;;5026384;28;20455;-44
2022/10/12 09:05:08;;;;;;;2.10;1.90;;;22.80;92.50;;;;;;5024179;28;20541;-44
2022/10/12 09:07:39;;;;;;;2.60;1.90;;;22.80;92.50;;;;;;5015191;28;20461;-44
2022/10/12 09:10:22;;;;;;;3.63;2.37;;;22.80;92.50;;;;;;5022163;28;20455;-43
2022/10/12 09:12:59;;;;;;;2.47;1.90;;;22.70;92.40;;;;;;5022832;28;20481;-44
2022/10/12 09:15:30;;;;;;;3.03;2.20;;;22.70;92.40;;;;;;5014458;28;20485;-45
2022/10/12 09:18:01;;;;;;;3.73;2.43;;;22.80;92.50;;;;;;5018616;28;20483;-44
2022/10/12 09:20:31;;;;;;;3.73;2.87;;;22.80;92.40;;;;;;5022780;28;20469;-43
2022/10/12 09:23:03;;;;;;;5.00;2.10;;;22.80;92.40;;;;;;5030081;28;20461;-43
2022/10/12 09:25:30;;;;;;;2.87;1.90;;;22.80;92.40;;;;;;5026810;28;20458;-44
2022/10/12 09:28:13;;;;;;;3.30;2.40;;;22.80;92.40;;;;;;5028554;28;20457;-44
2022/10/12 09:30:47;;;;;;;2.60;2.20;;;22.80;92.40;;;;;;5025084;28;20557;-44
2022/10/12 09:33:21;;;;;;;4.60;2.00;;;22.80;92.50;;;;;;5029609;28;20790;-45
2022/10/12 09:35:49;;;;;;;4.00;2.70;;;22.90;92.50;;;;;;5023447;28;20447;-45
2022/10/12 09:38:16;;;;;;;3.37;2.00;;;22.90;92.50;;;;;;5027389;28;20455;-44
2022/10/12 09:40:45;;;;;;;4.50;2.17;;;22.90;92.50;;;;;;5020116;28;20500;-44
2022/10/12 09:43:14;;;;;;;3.30;2.43;;;22.90;92.60;;;;;;5019079;28;20858;-45
2022/10/12 09:45:42;;;;;;;2.80;2.00;;;22.90;92.60;;;;;;5030292;28;20469;-46
2022/10/12 09:48:11;;;;;;;3.27;1.63;;;22.90;92.70;;;;;;5017490;28;20524;-48
2022/10/12 09:50:43;;;;;;;2.70;2.20;;;22.90;92.80;;;;;;5027828;28;20462;-48
2022/10/12 09:53:26;;;;;;;2.50;2.30;;;22.90;92.90;;;;;;5026233;28;20454;-45
2022/10/12 09:55:59;;;;;;;2.37;2.17;;;22.90;92.90;;;;;;5029167;28;20466;-46
2022/10/12 09:58:27;;;;;;;2.73;2.00;;;23.00;92.90;;;;;;5022810;28;20462;-47
2022/10/12 10:01:15;;;;;;;2.63;2.43;;;23.00;92.90;;;;;;5023843;28;20969;-44
2022/10/12 10:03:42;;;;;;;2.27;1.90;;;23.00;92.80;;;;;;5023583;28;20546;-44
2022/10/12 10:06:10;;;;;;;2.47;2.10;;;23.00;92.80;;;;;;5027421;28;20853;-50
2022/10/12 10:08:42;;;;;;;2.50;2.30;;;23.00;92.90;;;;;;5018680;28;20466;-46
2022/10/12 10:11:15;;;;;;;2.73;2.50;;;23.00;93.00;;;;;;5023572;28;20470;-49
2022/10/12 10:13:48;;;;;;;2.50;1.90;;;23.00;93.00;;;;;;5018401;28;20553;-45
2022/10/12 10:16:15;;;;;;;7.90;2.07;;;22.90;93.10;;;;;;5025018;28;20888;-47
2022/10/12 10:18:47;;;;;;;2.37;2.17;;;22.90;93.10;;;;;;5026749;28;20454;-44
2022/10/12 10:21:24;;;;;;;2.40;2.20;;;22.90;93.10;;;;;;5023835;28;20439;-46
2022/10/12 10:23:53;;;;;;;3.30;2.63;;;22.90;93.10;;;;;;5020714;28;20458;-48
2022/10/12 10:26:22;;;;;;;2.60;2.40;;;23.00;93.10;;;;;;5028387;28;20450;-43
2022/10/12 10:28:51;;;;;;;2.97;2.10;;;23.00;93.10;;;;;;5019090;28;20455;-44
2022/10/12 10:31:23;;;;;;;2.17;1.97;;;23.00;93.00;;;;;;5031758;28;20479;-48
2022/10/12 10:34:10;;;;;;;2.30;1.80;;;23.00;93.10;;;;;;5030629;28;20837;-45
2022/10/12 10:36:41;;;;;;;3.23;2.50;;;23.00;93.20;;;;;;5020193;28;20461;-45
2022/10/12 10:39:17;;;;;;;2.33;2.10;;;23.00;93.20;;;;;;5022947;28;20473;-45
2022/10/12 10:41:44;;;;;;;2.47;2.27;;;23.00;93.20;;;;;;5023278;28;20466;-41
2022/10/12 10:44:28;;;;;;;2.37;2.00;;;23.00;93.20;;;;;;5017776;28;20470;-48
2022/10/12 10:46:57;;;;;;;3.77;1.97;;;23.00;93.20;;;;;;5026623;28;20829;-46
2022/10/12 10:49:34;;;;;;;2.87;2.10;;;23.00;93.00;;;;;;5022549;28;20478;-43
2022/10/12 10:52:03;;;;;;;3.80;2.43;;;23.00;93.00;;;;;;5024891;28;20533;-45
2022/10/12 10:54:32;;;;;;;4.23;2.10;;;23.00;92.90;;;;;;5029014;28;20485;-47
2022/10/12 10:57:06;;;;;;;1.97;1.87;;;23.00;92.90;;;;;;5022137;28;20964;-45
2022/10/12 10:59:44;;;;;;;3.60;2.80;;;23.00;92.90;;;;;;5021567;28;20450;-46
2022/10/12 11:02:25;;;;;;;2.83;2.33;;;23.00;92.90;;;;;;5022235;28;20810;-48
2022/10/12 11:04:56;;;;;;;1.63;1.50;;;23.00;93.20;;;;;;5029206;28;20477;-46
2022/10/12 11:07:30;;;;;;;3.20;1.70;;;23.00;92.90;;;;;;5024844;28;20822;-44
2022/10/12 11:10:02;;;;;;;3.43;2.43;;;23.00;92.80;;;;;;5024785;28;20466;-49
2022/10/12 11:12:31;;;;;;;2.60;1.80;;;23.00;92.80;;;;;;5015104;28;20802;-51
2022/10/12 11:15:06;;;;;;;2.17;1.97;;;23.00;92.40;;;;;;5012701;28;20474;-49
2022/10/12 11:17:37;;;;;;;2.60;2.03;;;23.00;92.50;;;;;;5017197;28;20485;-51
2022/10/12 11:20:22;;;;;;;6.30;2.77;;;23.00;92.50;;;;;;5017363;28;20463;-39
2022/10/12 11:22:54;;;;;;;11.37;3.60;;;21.50;74.80;;;;;;5019863;28;20459;-39
2022/10/12 11:25:25;;;;;;;6.40;3.30;;;19.40;77.00;;;;;;5023907;28;20969;-39
2022/10/12 11:27:52;;;;;;;11.20;4.30;;;18.50;79.10;;;;;;5018240;28;20557;-40
2022/10/12 11:30:21;;;;;;;9.38;3.88;;;18.30;79.90;;;;;;5026847;28;20192;-39
2022/10/12 11:32:51;;;;;;;7.18;3.40;;;18.10;83.20;;;;;;5021455;28;20267;-39
2022/10/12 11:35:25;;;;;;;9.73;3.60;;;18.60;86.40;;;;;;5022999;28;20460;-40
2022/10/12 11:37:57;;;;;;;4.93;3.25;;;18.20;82.10;;;;;;5018278;28;20698;-40
2022/10/12 11:40:28;;;;;;;12.25;4.00;;;17.90;81.80;;;;;;5031093;28;20651;-40
2022/10/12 11:42:57;;;;;;;6.60;3.10;;;17.70;84.30;;;;;;5031448;28;20188;-40
2022/10/12 11:45:29;;;;;;;5.43;2.65;;;18.40;83.20;;;;;;5027382;28;20215;-38
2022/10/12 11:48:01;;;;;;;8.20;3.25;;;18.30;81.60;;;;;;5024241;28;20202;-37
2022/10/12 11:50:33;;;;;;;6.45;2.55;;;17.90;84.20;;;;;;5021600;28;20188;-39
2022/10/12 11:53:03;;;;;;;5.57;2.78;;;17.90;83.10;;;;;;5023714;28;20721;-39
2022/10/12 11:55:53;;;;;;;5.25;3.08;;;17.50;80.00;;;;;;5023264;28;20282;-38
2022/10/12 11:58:22;;;;;;;6.63;2.95;;;17.90;85.90;;;;;;5026916;28;20226;-39
2022/10/12 12:01:02;;;;;;;6.97;2.60;;;17.80;82.60;;;;;;5030262;28;20246;-38
2022/10/12 12:03:33;;;;;;;9.95;2.80;;;17.90;88.10;;;;;;5028781;28;20647;-38
2022/10/12 12:06:33;;;;;;;8.82;2.83;;;18.40;78.80;;;;;;5024759;28;20199;-39
2022/10/12 12:09:29;;;;;;;3.75;2.13;;;17.80;76.90;;;;;;5020562;28;20193;-39
2022/10/12 12:12:18;;;;;;;7.25;2.30;;;17.90;80.30;;;;;;5027172;28;20286;-40
2022/10/12 12:15:02;;;;;;;5.10;2.92;;;17.70;81.40;;;;;;5023441;28;20222;-40
2022/10/12 12:17:30;;;;;;;6.93;2.58;;;17.70;82.20;;;;;;5022508;28;20220;-40
2022/10/12 12:19:58;;;;;;;6.68;2.90;;;17.80;84.80;;;;;;5017367;28;20193;-39
2022/10/12 12:22:28;;;;;;;9.15;2.60;;;17.90;84.70;;;;;;5029249;28;20188;-40
2022/10/12 12:25:17;;;;;;;5.10;2.72;;;18.10;83.50;;;;;;5024351;28;20219;-40
2022/10/12 12:27:48;;;;;;;6.32;2.85;;;17.60;85.10;;;;;;5017923;28;20196;-40
2022/10/12 12:30:34;;;;;;;5.35;2.10;;;17.50;84.20;;;;;;5025130;28;20253;-39
2022/10/12 12:33:04;;;;;;;5.28;2.38;;;17.50;83.40;;;;;;5026643;28;20222;-40
2022/10/12 12:35:35;;;;;;;11.95;3.08;;;17.40;84.20;;;;;;5016564;28;20242;-40
2022/10/12 12:38:19;;;;;;;8.57;3.05;;;17.30;84.60;;;;;;5020015;28;20196;-48
2022/10/12 12:41:07;;;;;;;3.22;2.28;;;17.20;85.20;;;;;;5016396;28;20302;-42
2022/10/12 12:43:58;;;;;;;3.33;1.98;;;18.80;92.10;;;;;;5031153;28;20198;-45
2022/10/12 12:46:59;;;;;;;4.40;1.98;;;19.60;93.40;;;;;;5020620;28;20655;-48
2022/10/12 12:49:28;;;;;;;3.78;1.70;;;20.20;93.40;;;;;;4954540;28;20206;-47
2022/10/12 12:51:58;;;;;;;2.40;1.67;;;20.90;92.70;;;;;;4955762;28;20292;-47
2022/10/12 12:54:26;;;;;;;5.80;2.73;;;21.70;91.50;;;;;;4980115;28;20199;-48
2022/10/12 12:57:22;;;;;;;2.67;1.67;;;22.00;91.00;;;;;;5017797;28;20459;-50
2022/10/12 13:00:19;;;;;;;4.03;1.57;;;22.20;90.60;;;;;;5023586;28;20527;-48
2022/10/12 13:03:22;;;;;;;2.33;1.50;;;22.40;90.10;;;;;;5021730;28;20516;-46